EBCI/CRL METAR and TAF weather

Enter ICAO airport designator
Station Type Date Time Source
EBCI METAR 2018/10/16 20:50 UTC NOAA

EBCI 162050Z 21004KT CAVOK 15/11 Q1019 NOSIG


Station Type Date Time Source
EBCI Decoded METAR 2018/10/16 20:50 UTC NOAA

Charleroi / Gosselies, Belgium (EBCI) 50-28N 004-27E 192M
Oct 16, 2018 - 04:50 PM EDT / 2018.10.16 2050 UTC
Wind: from the SSW (210 degrees) at 5 MPH (4 KT):0
Visibility: greater than 7 mile(s):0
Temperature: 59 F (15 C)
Dew Point: 51 F (11 C)
Relative Humidity: 76%
Pressure (altimeter): 30.09 in. Hg (1019 hPa)
ob: EBCI 162050Z 21004KT CAVOK 15/11 Q1019 NOSIG
cycle: 21

Station Type Date Time Source
EBCI TAF 2018/10/16 18:27 UTC NOAA

TAF EBCI 161710Z 1618/1724 19005KT CAVOK


Example: see airport list